Time;durP1;ratioP1;P1;durP2;ratioP2;P2;SDS_P1;SDS_P2;PMS_P1;PMS_P2;Temp;Humidity;BMP_temperature;BMP_pressure;BME280_temperature;BME280_humidity;BME280_pressure;Samples;Min_cycle;Max_cycle;Signal;HPM_P1;HPM_P2
2023/05/26 00:00:06;;;;;;;8.47;6.20;;;16.10;99.90;;;;;;5015379;28;20200;-79
2023/05/26 00:02:39;;;;;;;6.60;6.00;;;16.10;99.90;;;;;;5014269;28;20798;-79
2023/05/26 00:05:09;;;;;;;7.37;6.53;;;16.00;99.90;;;;;;4979425;28;20430;-78
2023/05/26 00:07:39;;;;;;;6.70;5.87;;;16.10;99.90;;;;;;4975667;28;20423;-78
2023/05/26 00:10:06;;;;;;;6.97;6.27;;;16.00;99.90;;;;;;4974154;28;20420;-78
2023/05/26 00:12:32;;;;;;;7.73;6.30;;;15.90;99.90;;;;;;4975236;28;20594;-78
2023/05/26 00:14:57;;;;;;;7.10;6.40;;;15.80;99.90;;;;;;4975711;28;20466;-78
2023/05/26 00:17:24;;;;;;;8.80;6.20;;;15.70;99.90;;;;;;4975326;28;20204;-78
2023/05/26 00:19:52;;;;;;;7.60;6.20;;;15.60;99.90;;;;;;4978321;28;20190;-78
2023/05/26 00:22:18;;;;;;;7.93;7.20;;;15.60;99.90;;;;;;4979367;28;20438;-78
2023/05/26 00:24:47;;;;;;;9.30;6.90;;;15.60;99.90;;;;;;4979157;28;20437;-78
2023/05/26 00:27:13;;;;;;;7.90;6.77;;;15.60;99.90;;;;;;4979234;28;20431;-80
2023/05/26 00:29:39;;;;;;;8.17;6.67;;;15.40;99.90;;;;;;4978890;28;20412;-77
2023/05/26 00:32:05;;;;;;;9.50;6.70;;;15.30;99.90;;;;;;4978037;28;20804;-79
2023/05/26 00:34:33;;;;;;;6.87;5.47;;;15.30;99.90;;;;;;4979763;28;20709;-79
2023/05/26 00:37:00;;;;;;;8.70;7.13;;;15.30;99.90;;;;;;4980404;28;20616;-79
2023/05/26 00:39:25;;;;;;;7.00;6.30;;;15.20;99.90;;;;;;4979503;28;20417;-79
2023/05/26 00:41:51;;;;;;;9.60;6.50;;;15.40;99.90;;;;;;4978573;28;20826;-78
2023/05/26 00:44:17;;;;;;;7.20;6.53;;;15.40;99.90;;;;;;5000868;28;20541;-78
2023/05/26 00:46:42;;;;;;;9.43;6.37;;;15.30;99.90;;;;;;5017104;28;20565;-78
2023/05/26 00:49:08;;;;;;;8.53;7.10;;;15.50;99.90;;;;;;5017792;28;20538;-78
2023/05/26 00:51:34;;;;;;;7.00;6.30;;;15.40;99.90;;;;;;5018148;28;20555;-78
2023/05/26 00:54:00;;;;;;;9.10;7.23;;;15.20;99.90;;;;;;5017496;28;20417;-78
2023/05/26 00:56:27;;;;;;;8.93;6.20;;;15.40;99.90;;;;;;5018459;28;20195;-78
2023/05/26 00:58:57;;;;;;;6.70;5.90;;;15.50;99.90;;;;;;5016673;28;20232;-78
2023/05/26 01:01:23;;;;;;;8.50;6.90;;;15.60;99.90;;;;;;5013653;28;20445;-78
2023/05/26 01:03:49;;;;;;;9.80;6.63;;;15.70;99.90;;;;;;5002920;28;20771;-78
2023/05/26 01:06:16;;;;;;;5.90;5.23;;;15.60;99.90;;;;;;4977195;28;20748;-78
2023/05/26 01:08:41;;;;;;;7.60;6.00;;;15.70;99.90;;;;;;4978609;28;20762;-78
2023/05/26 01:11:13;;;;;;;7.63;6.13;;;15.80;99.90;;;;;;4977148;28;20419;-78
2023/05/26 01:13:52;;;;;;;6.33;5.73;;;15.70;99.90;;;;;;4978627;28;20160;-78
2023/05/26 01:16:22;;;;;;;6.30;5.70;;;15.70;99.90;;;;;;4977875;28;20506;-78
2023/05/26 01:19:13;;;;;;;7.60;5.53;;;15.80;99.90;;;;;;4978126;28;20473;-79
2023/05/26 01:21:42;;;;;;;7.57;5.70;;;15.90;99.90;;;;;;4976955;28;20454;-78
2023/05/26 01:24:11;;;;;;;7.70;6.27;;;15.90;99.90;;;;;;4978509;28;20420;-79
2023/05/26 01:27:03;;;;;;;6.90;6.20;;;15.90;99.90;;;;;;4978686;28;20884;-78
2023/05/26 01:29:30;;;;;;;9.93;6.33;;;16.00;99.90;;;;;;4978499;28;20464;-78
2023/05/26 01:32:09;;;;;;;6.60;5.50;;;16.00;99.90;;;;;;4991557;28;20501;-78
2023/05/26 01:34:34;;;;;;;6.97;5.30;;;16.10;99.90;;;;;;4991300;28;20944;-78
2023/05/26 01:37:00;;;;;;;6.77;6.17;;;16.10;99.90;;;;;;5016798;28;20497;-79
2023/05/26 01:39:26;;;;;;;7.90;6.30;;;15.90;99.90;;;;;;5018031;28;20243;-78
2023/05/26 01:42:15;;;;;;;7.77;5.80;;;16.00;99.90;;;;;;5016765;28;20719;-78
2023/05/26 01:44:50;;;;;;;7.90;6.07;;;15.80;99.90;;;;;;5016867;28;20195;-78
2023/05/26 01:47:16;;;;;;;8.73;6.60;;;15.90;99.90;;;;;;5016280;28;20465;-78
2023/05/26 01:49:46;;;;;;;8.27;6.23;;;16.00;99.90;;;;;;5015112;28;20792;-78
2023/05/26 01:52:15;;;;;;;8.50;5.80;;;16.00;99.90;;;;;;5016922;28;20155;-78
2023/05/26 01:54:55;;;;;;;7.97;5.83;;;16.10;99.90;;;;;;5016257;28;20420;-78
2023/05/26 01:57:22;;;;;;;6.80;5.60;;;16.20;99.90;;;;;;5017195;28;20447;-78
2023/05/26 01:59:47;;;;;;;7.13;5.13;;;16.20;99.90;;;;;;5017150;28;20407;-78
2023/05/26 02:02:13;;;;;;;6.20;5.67;;;16.20;99.90;;;;;;5015883;28;20450;-79
2023/05/26 02:04:38;;;;;;;6.77;6.17;;;16.20;99.90;;;;;;4987435;28;20196;-78
2023/05/26 02:07:05;;;;;;;6.87;6.00;;;16.10;99.90;;;;;;4976110;28;20184;-78
2023/05/26 02:09:31;;;;;;;7.87;6.30;;;16.20;99.90;;;;;;4976651;28;20161;-78
2023/05/26 02:11:57;;;;;;;8.60;6.10;;;16.30;99.90;;;;;;4975504;28;20412;-78
2023/05/26 02:14:22;;;;;;;7.77;6.97;;;16.20;99.90;;;;;;4977319;28;20410;-79
2023/05/26 02:16:48;;;;;;;7.57;6.10;;;16.20;99.90;;;;;;4976385;28;20201;-78
2023/05/26 02:19:14;;;;;;;9.53;6.83;;;16.20;99.90;;;;;;4977180;28;20191;-78
2023/05/26 02:21:40;;;;;;;8.67;6.00;;;16.10;99.90;;;;;;4976374;28;20206;-78
2023/05/26 02:24:05;;;;;;;8.60;5.50;;;16.00;99.90;;;;;;4977180;28;20169;-78
2023/05/26 02:26:31;;;;;;;6.43;5.50;;;16.00;99.90;;;;;;4990349;28;20417;-78
2023/05/26 02:28:57;;;;;;;6.43;5.80;;;16.10;99.90;;;;;;4990716;28;20172;-78
2023/05/26 02:31:22;;;;;;;6.80;6.00;;;16.20;99.90;;;;;;4988192;28;20173;-78
2023/05/26 02:33:49;;;;;;;6.43;5.70;;;16.20;99.90;;;;;;4980213;28;20214;-79
2023/05/26 02:36:15;;;;;;;10.50;6.90;;;16.20;99.90;;;;;;4977448;28;20200;-79
2023/05/26 02:38:42;;;;;;;7.07;6.30;;;16.20;99.90;;;;;;4977342;28;20460;-79
2023/05/26 02:41:08;;;;;;;9.63;5.90;;;16.30;99.90;;;;;;4975661;28;20195;-78
2023/05/26 02:43:34;;;;;;;6.90;6.20;;;16.30;99.90;;;;;;4975890;28;20507;-78
2023/05/26 02:46:00;;;;;;;7.90;6.40;;;16.40;99.90;;;;;;4973967;28;20418;-79
2023/05/26 02:48:25;;;;;;;9.93;7.13;;;16.30;99.90;;;;;;4976082;28;20406;-78
2023/05/26 02:50:51;;;;;;;8.63;6.50;;;16.40;99.90;;;;;;4975258;28;20176;-79
2023/05/26 02:53:18;;;;;;;7.40;6.60;;;16.20;99.90;;;;;;4977136;28;20205;-79
2023/05/26 02:55:44;;;;;;;8.50;6.70;;;16.20;99.90;;;;;;4975424;28;20178;-78
2023/05/26 02:58:10;;;;;;;7.67;6.40;;;16.20;99.90;;;;;;4975508;28;20450;-78
2023/05/26 03:00:36;;;;;;;8.37;6.60;;;16.20;99.90;;;;;;4975501;28;20202;-78
2023/05/26 03:03:02;;;;;;;7.93;6.70;;;16.20;99.90;;;;;;4975527;28;20977;-78
2023/05/26 03:05:27;;;;;;;8.20;6.87;;;16.20;99.90;;;;;;4975933;28;20179;-78
2023/05/26 03:07:53;;;;;;;7.93;7.20;;;16.10;99.90;;;;;;4976049;28;20193;-79
2023/05/26 03:10:18;;;;;;;7.43;6.53;;;15.90;99.90;;;;;;4987168;28;20183;-79
2023/05/26 03:12:44;;;;;;;6.77;6.07;;;16.10;99.90;;;;;;4994073;28;20275;-79
2023/05/26 03:15:11;;;;;;;10.47;6.27;;;16.00;99.90;;;;;;4994523;28;20189;-77
2023/05/26 03:17:37;;;;;;;8.30;6.33;;;16.10;99.90;;;;;;4996469;28;20276;-78
2023/05/26 03:20:04;;;;;;;8.03;7.20;;;16.10;99.90;;;;;;4995705;28;20502;-78
2023/05/26 03:22:29;;;;;;;9.60;7.43;;;16.10;99.90;;;;;;4994993;28;20288;-78
2023/05/26 03:24:55;;;;;;;8.60;7.80;;;16.00;99.90;;;;;;4995803;28;20429;-79
2023/05/26 03:27:22;;;;;;;7.40;6.57;;;15.90;99.90;;;;;;4995569;28;20199;-78
2023/05/26 03:29:48;;;;;;;8.27;6.47;;;15.70;99.90;;;;;;4978624;28;20196;-78
2023/05/26 03:32:14;;;;;;;8.90;7.30;;;15.70;99.90;;;;;;4975109;28;20417;-78
2023/05/26 03:34:39;;;;;;;9.13;7.00;;;15.50;99.90;;;;;;4975877;28;20857;-78
2023/05/26 03:37:08;;;;;;;8.93;6.70;;;15.50;99.90;;;;;;4975253;28;20211;-78
2023/05/26 03:39:33;;;;;;;8.47;7.37;;;15.30;99.90;;;;;;4976053;28;20180;-78
2023/05/26 03:42:00;;;;;;;8.27;6.90;;;15.20;99.90;;;;;;4974130;28;20528;-78
2023/05/26 03:44:26;;;;;;;9.10;7.30;;;15.20;99.90;;;;;;4996468;28;20663;-78
2023/05/26 03:46:51;;;;;;;9.20;7.17;;;15.20;99.90;;;;;;4995404;28;20508;-78
2023/05/26 03:49:17;;;;;;;9.70;7.20;;;15.30;99.90;;;;;;4995824;28;20413;-78
2023/05/26 03:51:42;;;;;;;10.30;7.40;;;15.30;99.90;;;;;;4995460;28;20316;-78
2023/05/26 03:54:08;;;;;;;7.97;7.23;;;15.20;99.90;;;;;;4996084;28;20224;-78
2023/05/26 03:56:35;;;;;;;8.00;7.20;;;15.10;99.90;;;;;;4998263;28;20230;-78
2023/05/26 03:59:01;;;;;;;9.07;7.10;;;15.20;99.90;;;;;;4987531;28;20258;-78
2023/05/26 04:01:27;;;;;;;8.60;6.60;;;15.20;99.90;;;;;;4978990;28;20482;-79
2023/05/26 04:03:52;;;;;;;8.17;7.43;;;15.00;99.90;;;;;;4979436;28;20422;-78
2023/05/26 04:06:18;;;;;;;11.70;7.93;;;14.80;99.90;;;;;;4980298;28;20190;-78
2023/05/26 04:08:43;;;;;;;9.23;7.50;;;14.80;99.90;;;;;;4980934;28;20177;-78
2023/05/26 04:11:09;;;;;;;10.03;7.23;;;14.80;99.90;;;;;;4980266;28;20173;-78
2023/05/26 04:13:38;;;;;;;8.00;7.30;;;14.80;99.90;;;;;;4979910;28;20177;-78
2023/05/26 04:16:04;;;;;;;11.03;7.73;;;14.80;99.90;;;;;;4979571;28;20278;-78
2023/05/26 04:18:30;;;;;;;10.00;7.60;;;14.80;99.90;;;;;;4978115;28;20447;-79
2023/05/26 04:20:55;;;;;;;8.00;6.70;;;14.90;99.90;;;;;;4981834;28;20454;-79
2023/05/26 04:23:21;;;;;;;7.77;7.07;;;15.00;99.90;;;;;;4992296;28;20422;-78
2023/05/26 04:25:47;;;;;;;7.43;6.60;;;15.20;99.90;;;;;;4998037;28;20235;-78
2023/05/26 04:28:14;;;;;;;8.20;6.73;;;15.40;99.90;;;;;;4999287;28;20168;-78
2023/05/26 04:30:40;;;;;;;11.03;8.10;;;15.50;99.90;;;;;;4994457;28;20195;-78
2023/05/26 04:33:07;;;;;;;11.53;7.00;;;15.70;99.90;;;;;;4992989;28;20411;-78
2023/05/26 04:35:33;;;;;;;6.80;6.20;;;15.70;99.90;;;;;;4998178;28;20436;-78
2023/05/26 04:37:59;;;;;;;8.77;7.20;;;15.80;99.90;;;;;;5048435;23;20886;-72
2023/05/26 04:40:25;;;;;;;8.27;7.33;;;15.90;99.90;;;;;;5018064;28;20450;-73
2023/05/26 04:42:50;;;;;;;8.17;6.63;;;16.00;99.90;;;;;;5036131;28;20257;-73
2023/05/26 04:45:16;;;;;;;9.30;7.40;;;16.10;99.90;;;;;;5036003;28;20400;-74
2023/05/26 04:47:42;;;;;;;9.90;8.90;;;16.20;99.90;;;;;;5035625;28;20195;-73
2023/05/26 04:50:12;;;;;;;9.17;8.13;;;16.20;99.90;;;;;;5035475;28;20167;-73
2023/05/26 04:52:40;;;;;;;23.30;19.93;;;16.20;99.90;;;;;;5035691;28;20402;-73
2023/05/26 04:55:06;;;;;;;85.67;53.87;;;16.20;99.90;;;;;;5035913;28;20407;-73
2023/05/26 04:57:32;;;;;;;94.70;59.57;;;16.30;99.90;;;;;;5018152;28;20424;-72
2023/05/26 04:59:57;;;;;;;12.80;9.67;;;16.30;99.90;;;;;;5036314;28;20459;-74
2023/05/26 05:02:23;;;;;;;12.80;9.13;;;15.90;99.90;;;;;;5035378;28;20264;-74
2023/05/26 05:04:48;;;;;;;25.83;17.30;;;15.80;99.90;;;;;;5017514;28;20170;-73
2023/05/26 05:07:14;;;;;;;12.23;8.00;;;15.80;99.90;;;;;;5034313;28;20200;-73
2023/05/26 05:09:40;;;;;;;29.37;19.80;;;16.00;99.90;;;;;;5035384;28;20254;-73
2023/05/26 05:12:06;;;;;;;216.10;117.70;;;15.70;99.90;;;;;;5035041;28;20445;-73
2023/05/26 05:14:32;;;;;;;222.77;120.03;;;15.80;99.90;;;;;;5035061;28;20181;-73
2023/05/26 05:16:58;;;;;;;78.57;46.13;;;16.10;99.90;;;;;;5035085;28;20260;-72
2023/05/26 05:19:23;;;;;;;34.33;21.00;;;16.30;99.90;;;;;;5017667;28;20421;-72
2023/05/26 05:21:49;;;;;;;141.13;81.13;;;16.50;99.90;;;;;;5035460;28;20194;-72
2023/05/26 05:24:15;;;;;;;57.30;36.10;;;16.50;99.90;;;;;;5035277;28;20169;-73
2023/05/26 05:26:41;;;;;;;111.43;62.57;;;16.60;99.90;;;;;;5017635;28;20525;-73
2023/05/26 05:29:07;;;;;;;39.77;26.20;;;16.70;99.90;;;;;;5034778;28;20170;-73
2023/05/26 05:31:33;;;;;;;17.93;13.50;;;16.70;99.90;;;;;;5017361;28;20269;-73
2023/05/26 05:33:59;;;;;;;13.90;10.70;;;16.80;99.90;;;;;;5034640;28;20508;-73
2023/05/26 05:36:24;;;;;;;14.83;9.20;;;16.90;99.90;;;;;;5031204;28;20230;-73
2023/05/26 05:38:50;;;;;;;10.73;9.53;;;16.60;99.90;;;;;;5035022;28;20165;-72
2023/05/26 05:41:15;;;;;;;12.40;10.17;;;16.30;99.90;;;;;;5034649;28;20646;-73
2023/05/26 05:43:41;;;;;;;13.77;8.67;;;16.40;99.90;;;;;;5034082;28;20557;-72
2023/05/26 05:46:06;;;;;;;18.70;16.80;;;16.20;99.90;;;;;;5034233;28;20174;-73
2023/05/26 05:48:32;;;;;;;14.20;12.33;;;16.30;99.90;;;;;;5034653;28;20170;-73
2023/05/26 05:50:59;;;;;;;11.87;8.87;;;16.60;99.90;;;;;;5034155;28;20167;-73
2023/05/26 05:53:25;;;;;;;9.80;8.00;;;16.50;99.90;;;;;;5033228;28;20175;-74
2023/05/26 05:55:50;;;;;;;9.93;8.80;;;16.40;99.90;;;;;;5033118;28;20417;-73
2023/05/26 05:58:16;;;;;;;14.63;9.40;;;16.00;99.90;;;;;;5034354;28;20187;-72
2023/05/26 06:00:41;;;;;;;11.93;8.67;;;16.10;99.90;;;;;;5033881;28;20584;-72
2023/05/26 06:03:07;;;;;;;18.10;9.27;;;16.20;99.90;;;;;;5034465;28;20224;-72
2023/05/26 06:05:32;;;;;;;10.63;8.93;;;16.40;99.90;;;;;;5014647;28;20564;-73
2023/05/26 06:07:58;;;;;;;10.90;9.30;;;16.20;99.90;;;;;;4996599;28;20262;-72
2023/05/26 06:10:23;;;;;;;10.53;9.43;;;16.00;99.90;;;;;;5014201;28;20168;-72
2023/05/26 06:12:49;;;;;;;9.80;8.70;;;15.90;99.90;;;;;;5014163;28;20178;-71
2023/05/26 06:15:17;;;;;;;12.53;8.20;;;15.90;99.90;;;;;;5014428;28;20172;-72
2023/05/26 06:17:43;;;;;;;11.73;9.00;;;16.00;99.90;;;;;;4995875;28;20225;-72
2023/05/26 06:20:09;;;;;;;15.13;9.70;;;16.20;99.90;;;;;;5014101;28;20494;-72
2023/05/26 06:22:36;;;;;;;15.13;9.07;;;16.30;99.90;;;;;;5013858;28;20176;-72
2023/05/26 06:25:03;;;;;;;11.90;8.53;;;16.20;99.90;;;;;;5014136;28;20930;-73
2023/05/26 06:27:29;;;;;;;11.87;8.70;;;16.30;99.90;;;;;;5026784;28;20484;-72
2023/05/26 06:29:54;;;;;;;12.47;9.03;;;16.30;99.90;;;;;;5015865;28;20419;-72
2023/05/26 06:32:20;;;;;;;10.30;8.70;;;16.40;99.90;;;;;;5014006;28;20164;-72
2023/05/26 06:34:47;;;;;;;10.20;8.97;;;16.30;99.90;;;;;;5013996;28;20187;-73
2023/05/26 06:37:13;;;;;;;11.50;8.90;;;16.40;99.90;;;;;;5013476;28;20670;-73
2023/05/26 06:39:38;;;;;;;13.27;8.80;;;16.50;99.90;;;;;;4995988;28;20438;-73
2023/05/26 06:42:05;;;;;;;11.37;8.87;;;16.90;99.90;;;;;;5013916;28;20250;-73
2023/05/26 06:44:31;;;;;;;10.30;8.27;;;16.80;99.90;;;;;;5013543;28;20168;-73
2023/05/26 06:46:57;;;;;;;14.17;8.77;;;16.90;99.90;;;;;;5013349;28;20423;-72
2023/05/26 06:49:22;;;;;;;18.47;10.13;;;17.00;99.90;;;;;;5014252;28;20168;-73
2023/05/26 06:51:48;;;;;;;12.90;9.10;;;17.00;99.90;;;;;;5013662;28;20670;-73
2023/05/26 06:54:13;;;;;;;11.50;9.48;;;16.80;99.90;;;;;;4994914;28;20475;-75
2023/05/26 06:56:39;;;;;;;12.13;9.03;;;16.90;99.90;;;;;;5013588;28;20192;-74
2023/05/26 06:59:05;;;;;;;13.17;8.87;;;16.70;99.90;;;;;;5025499;28;20653;-76
2023/05/26 07:01:30;;;;;;;14.70;9.13;;;16.90;99.90;;;;;;5033014;28;20300;-75
2023/05/26 07:03:56;;;;;;;10.60;8.73;;;17.00;99.90;;;;;;5033078;28;20577;-75
2023/05/26 07:06:21;;;;;;;12.90;9.80;;;17.10;99.90;;;;;;5033372;28;20589;-75
2023/05/26 07:08:47;;;;;;;11.67;10.23;;;17.00;99.90;;;;;;5033561;28;20163;-75
2023/05/26 07:11:12;;;;;;;15.00;10.20;;;17.00;99.90;;;;;;5033218;28;20195;-74
2023/05/26 07:13:38;;;;;;;11.53;10.10;;;16.90;99.90;;;;;;5033156;28;20198;-75
2023/05/26 07:16:03;;;;;;;12.33;9.23;;;16.90;99.90;;;;;;5022921;28;20182;-74
2023/05/26 07:18:29;;;;;;;10.90;9.50;;;17.00;99.90;;;;;;5032993;28;20183;-74
2023/05/26 07:20:55;;;;;;;13.50;10.07;;;17.10;99.90;;;;;;5033098;28;20203;-74
2023/05/26 07:23:20;;;;;;;11.87;9.10;;;17.40;99.90;;;;;;5033018;28;20176;-75
2023/05/26 07:25:46;;;;;;;12.80;9.97;;;17.60;99.90;;;;;;5034418;28;20503;-77
2023/05/26 07:28:12;;;;;;;12.63;10.80;;;17.60;99.90;;;;;;5031992;28;20246;-77
2023/05/26 07:30:37;;;;;;;13.87;9.90;;;17.60;99.90;;;;;;5020315;28;20222;-76
2023/05/26 07:33:03;;;;;;;12.40;9.87;;;17.40;99.90;;;;;;5021036;28;20179;-76
2023/05/26 07:35:28;;;;;;;14.73;10.40;;;17.40;99.90;;;;;;5021894;28;20180;-73
2023/05/26 07:37:56;;;;;;;10.97;9.77;;;17.40;99.90;;;;;;5019580;28;20223;-74
2023/05/26 07:40:21;;;;;;;12.20;9.67;;;17.80;99.90;;;;;;5001807;28;20311;-74
2023/05/26 07:42:47;;;;;;;12.03;10.67;;;18.10;99.90;;;;;;5019650;28;20435;-73
2023/05/26 07:45:12;;;;;;;15.33;10.40;;;18.10;99.90;;;;;;5019279;28;20199;-75
2023/05/26 07:47:38;;;;;;;13.27;9.60;;;18.00;99.90;;;;;;5019634;28;20646;-75
2023/05/26 07:50:04;;;;;;;12.00;8.97;;;17.60;99.90;;;;;;5020312;28;20171;-77
2023/05/26 07:52:30;;;;;;;12.30;9.60;;;17.30;99.90;;;;;;5037736;28;20171;-76
2023/05/26 07:54:55;;;;;;;14.83;9.40;;;17.20;99.90;;;;;;5039315;28;20958;-75
2023/05/26 07:57:21;;;;;;;12.57;9.73;;;17.40;99.90;;;;;;5039530;28;20282;-74
2023/05/26 07:59:46;;;;;;;10.37;9.10;;;17.60;99.90;;;;;;5022624;28;20222;-75
2023/05/26 08:02:12;;;;;;;10.50;8.20;;;17.70;99.90;;;;;;5019496;28;20200;-76
2023/05/26 08:04:38;;;;;;;12.07;9.30;;;18.20;99.90;;;;;;5001924;28;20199;-76
2023/05/26 08:07:05;;;;;;;13.03;9.80;;;18.30;99.90;;;;;;5019652;28;20619;-75
2023/05/26 08:09:30;;;;;;;12.70;9.87;;;18.20;99.90;;;;;;5019872;28;20501;-75
2023/05/26 08:11:56;;;;;;;12.07;10.40;;;18.30;99.90;;;;;;5019440;28;20541;-76
2023/05/26 08:14:23;;;;;;;11.93;10.20;;;18.40;99.90;;;;;;5019326;28;20183;-75
2023/05/26 08:16:49;;;;;;;15.93;10.33;;;18.30;99.90;;;;;;5019953;28;20188;-76
2023/05/26 08:19:14;;;;;;;12.13;9.30;;;18.30;99.90;;;;;;5019607;28;20912;-76
2023/05/26 08:21:40;;;;;;;11.20;9.40;;;18.40;99.90;;;;;;5019861;28;20235;-75
2023/05/26 08:24:05;;;;;;;13.10;8.90;;;18.50;99.90;;;;;;5020347;28;20176;-75
2023/05/26 08:26:31;;;;;;;11.77;8.87;;;18.80;99.90;;;;;;5020664;28;20195;-76
2023/05/26 08:28:56;;;;;;;13.37;10.03;;;18.80;99.90;;;;;;5029309;28;20237;-75
2023/05/26 08:31:22;;;;;;;12.10;8.90;;;18.80;99.90;;;;;;5021765;28;20707;-73
2023/05/26 08:33:47;;;;;;;14.27;8.97;;;18.50;99.90;;;;;;5039565;28;20171;-75
2023/05/26 08:36:13;;;;;;;10.97;9.87;;;18.50;99.90;;;;;;5039218;28;20171;-76
2023/05/26 08:38:39;;;;;;;10.83;9.13;;;18.30;99.90;;;;;;5039595;28;20243;-76
2023/05/26 08:41:05;;;;;;;11.30;9.80;;;18.50;99.90;;;;;;5037900;28;20191;-77
2023/05/26 08:43:45;;;;;;;12.40;10.03;;;18.50;99.90;;;;;;5020140;28;20566;-77
2023/05/26 08:46:12;;;;;;;12.43;9.33;;;18.50;99.90;;;;;;5037649;28;20521;-78
2023/05/26 08:48:39;;;;;;;15.10;9.97;;;18.80;99.90;;;;;;5019571;28;20438;-76
2023/05/26 08:51:07;;;;;;;11.47;9.30;;;19.20;99.90;;;;;;5037641;28;20414;-77
2023/05/26 08:53:33;;;;;;;11.93;10.63;;;19.30;99.90;;;;;;5021685;28;20410;-74
2023/05/26 08:56:00;;;;;;;13.77;9.77;;;19.30;99.90;;;;;;5036160;28;20422;-75
2023/05/26 08:58:26;;;;;;;11.13;8.93;;;19.30;99.90;;;;;;5035677;28;20171;-75
2023/05/26 09:00:53;;;;;;;11.70;9.03;;;19.30;99.90;;;;;;5035470;28;20511;-75
2023/05/26 09:03:18;;;;;;;14.10;10.17;;;19.40;99.90;;;;;;5035066;28;20432;-76
2023/05/26 09:05:45;;;;;;;11.77;8.63;;;19.50;99.90;;;;;;5035678;28;20420;-76
2023/05/26 09:08:13;;;;;;;14.40;8.97;;;19.30;99.90;;;;;;5035241;28;20237;-74
2023/05/26 09:10:40;;;;;;;9.90;8.33;;;19.30;99.90;;;;;;5036533;28;20402;-74
2023/05/26 09:13:07;;;;;;;11.93;9.00;;;19.50;99.90;;;;;;5036376;28;20406;-73
2023/05/26 09:15:33;;;;;;;11.17;9.57;;;19.80;99.90;;;;;;5035352;28;20463;-74
2023/05/26 09:18:25;;;;;;;11.60;9.23;;;19.60;99.90;;;;;;5035084;28;20434;-72
2023/05/26 09:20:51;;;;;;;11.60;9.30;;;19.90;99.90;;;;;;5031604;28;20595;-73
2023/05/26 09:23:23;;;;;;;11.90;8.80;;;19.90;99.90;;;;;;5034904;28;20500;-72
2023/05/26 09:25:50;;;;;;;13.67;8.50;;;20.00;99.90;;;;;;5035290;28;20148;-73
2023/05/26 09:28:16;;;;;;;14.13;8.50;;;20.10;99.90;;;;;;5034591;28;20434;-73
2023/05/26 09:30:45;;;;;;;10.13;8.07;;;20.30;99.90;;;;;;5034915;28;20408;-74
2023/05/26 09:33:16;;;;;;;12.73;8.90;;;20.30;99.90;;;;;;5034583;28;20186;-74
2023/05/26 09:35:45;;;;;;;12.20;8.30;;;20.40;99.90;;;;;;5031718;28;20510;-75
2023/05/26 09:38:13;;;;;;;9.87;8.87;;;20.50;99.90;;;;;;5034489;28;20450;-76
2023/05/26 09:40:48;;;;;;;11.80;8.37;;;20.40;99.90;;;;;;5034452;28;20458;-76
2023/05/26 09:43:18;;;;;;;12.20;9.40;;;20.50;99.90;;;;;;5034600;28;20413;-72
2023/05/26 09:45:43;;;;;;;11.43;8.50;;;20.50;99.90;;;;;;5016869;28;20418;-73
2023/05/26 09:48:10;;;;;;;14.10;8.77;;;20.60;99.90;;;;;;5034682;28;20483;-74
2023/05/26 09:50:37;;;;;;;12.30;8.37;;;20.60;99.90;;;;;;5036192;28;20221;-74
2023/05/26 09:53:05;;;;;;;9.23;7.97;;;20.90;99.90;;;;;;5035825;28;20402;-74
2023/05/26 09:55:32;;;;;;;9.87;8.30;;;21.10;99.80;;;;;;5034257;28;20920;-75
2023/05/26 09:58:08;;;;;;;9.50;8.60;;;21.10;99.70;;;;;;5031690;28;20437;-74
2023/05/26 10:00:35;;;;;;;9.57;8.57;;;20.90;99.90;;;;;;5014395;28;20585;-73
2023/05/26 10:03:05;;;;;;;15.23;8.80;;;21.10;99.90;;;;;;5014418;28;20407;-76
2023/05/26 10:05:38;;;;;;;11.37;8.57;;;21.30;99.90;;;;;;5031632;28;20479;-76
2023/05/26 10:08:06;;;;;;;9.17;7.63;;;21.40;99.60;;;;;;5034165;28;20429;-77
2023/05/26 10:10:33;;;;;;;13.93;8.33;;;21.80;99.60;;;;;;5034091;28;20413;-76
2023/05/26 10:12:59;;;;;;;14.33;9.27;;;21.70;99.10;;;;;;5034431;28;20417;-77
2023/05/26 10:15:25;;;;;;;13.60;8.10;;;21.60;99.30;;;;;;5034586;28;20406;-76
2023/05/26 10:17:51;;;;;;;13.30;8.20;;;21.70;99.90;;;;;;5033707;28;20810;-75
2023/05/26 10:20:18;;;;;;;8.93;7.73;;;21.50;99.50;;;;;;5034324;28;20406;-74
2023/05/26 10:22:50;;;;;;;9.70;8.40;;;21.50;99.90;;;;;;5033959;28;20829;-74
2023/05/26 10:25:37;;;;;;;12.03;8.93;;;21.70;99.70;;;;;;5034497;28;20457;-75
2023/05/26 10:28:40;;;;;;;10.30;8.60;;;21.60;99.90;;;;;;5016326;28;20477;-75
2023/05/26 10:31:06;;;;;;;10.50;8.90;;;21.90;99.50;;;;;;5016005;28;20441;-76
2023/05/26 10:33:42;;;;;;;10.93;8.27;;;21.70;99.90;;;;;;5015828;28;20822;-75
2023/05/26 10:36:16;;;;;;;11.83;9.23;;;21.80;99.90;;;;;;5033591;28;20171;-75
2023/05/26 10:38:47;;;;;;;9.20;8.30;;;21.80;99.90;;;;;;5054678;23;20564;-72
2023/05/26 10:41:28;;;;;;;13.20;9.10;;;21.80;99.90;;;;;;5033725;28;20936;-72
2023/05/26 10:43:55;;;;;;;9.00;7.70;;;21.70;99.90;;;;;;5033660;28;20390;-72
2023/05/26 10:46:20;;;;;;;12.13;9.00;;;21.70;99.60;;;;;;5033646;28;20788;-72
2023/05/26 10:48:57;;;;;;;15.20;9.47;;;21.60;99.80;;;;;;5033303;28;20509;-72
2023/05/26 10:51:31;;;;;;;9.03;8.13;;;21.70;99.50;;;;;;5034094;28;20167;-71
2023/05/26 10:53:58;;;;;;;12.57;9.00;;;21.50;99.70;;;;;;5033193;28;20408;-73
2023/05/26 10:56:41;;;;;;;13.03;7.13;;;21.60;99.50;;;;;;5033818;28;20498;-72
2023/05/26 10:59:07;;;;;;;8.80;7.40;;;22.00;98.70;;;;;;5033930;28;20382;-75
2023/05/26 11:01:33;;;;;;;10.30;7.67;;;22.10;98.90;;;;;;5033244;28;20956;-74
2023/05/26 11:04:05;;;;;;;10.00;7.20;;;22.00;98.80;;;;;;5032060;28;20209;-74
2023/05/26 11:06:35;;;;;;;7.73;6.93;;;22.20;98.50;;;;;;5033307;28;20402;-75
2023/05/26 11:09:07;;;;;;;9.50;7.70;;;22.50;98.10;;;;;;5032867;28;20402;-74
2023/05/26 11:11:34;;;;;;;8.70;6.87;;;22.50;98.00;;;;;;5033543;28;20394;-74
2023/05/26 11:14:04;;;;;;;8.57;7.67;;;22.60;98.40;;;;;;5032873;28;20434;-74
2023/05/26 11:16:37;;;;;;;11.70;7.97;;;22.50;98.20;;;;;;5033391;28;20384;-74
2023/05/26 11:19:05;;;;;;;12.47;8.30;;;22.50;97.90;;;;;;5017157;28;20422;-74
2023/05/26 11:21:33;;;;;;;8.10;7.03;;;22.70;98.10;;;;;;5033101;28;20446;-75
2023/05/26 11:24:00;;;;;;;10.77;7.53;;;23.30;97.60;;;;;;5033535;28;20434;-74
2023/05/26 11:26:28;;;;;;;10.87;7.70;;;24.40;95.70;;;;;;5032727;28;20430;-74
2023/05/26 11:28:54;;;;;;;11.63;7.93;;;24.70;95.10;;;;;;5029204;28;21015;-74
2023/05/26 11:31:21;;;;;;;7.47;6.30;;;25.70;93.90;;;;;;5013243;28;20469;-75
2023/05/26 11:33:48;;;;;;;11.63;6.87;;;27.00;91.50;;;;;;5015905;28;20482;-73
2023/05/26 11:36:16;;;;;;;8.20;7.10;;;27.30;90.80;;;;;;5032755;28;20880;-75
2023/05/26 11:38:43;;;;;;;9.90;7.50;;;28.80;89.80;;;;;;5032635;28;20503;-75
2023/05/26 11:41:11;;;;;;;9.10;6.87;;;28.50;83.20;;;;;;5032536;28;20444;-75
2023/05/26 11:43:38;;;;;;;7.50;6.10;;;27.50;85.30;;;;;;5014886;28;20429;-74
2023/05/26 11:46:11;;;;;;;7.30;6.13;;;27.00;86.70;;;;;;5032306;28;20406;-75
2023/05/26 11:48:39;;;;;;;8.87;7.50;;;27.70;84.90;;;;;;5033102;28;20990;-75
2023/05/26 11:51:14;;;;;;;9.43;7.33;;;27.30;83.70;;;;;;5032583;28;20403;-73
2023/05/26 11:53:41;;;;;;;8.10;6.60;;;26.60;86.40;;;;;;5032787;28;20394;-74
2023/05/26 11:56:09;;;;;;;7.30;6.57;;;29.10;81.50;;;;;;5032621;28;20726;-74
2023/05/26 11:58:37;;;;;;;8.60;7.00;;;28.60;80.40;;;;;;5031336;28;20425;-74
2023/05/26 12:01:05;;;;;;;8.37;7.47;;;26.00;86.10;;;;;;5032767;28;20442;-74
2023/05/26 12:03:36;;;;;;;8.77;6.80;;;27.10;84.70;;;;;;5032381;28;20438;-73
2023/05/26 12:06:29;;;;;;;7.40;6.70;;;28.00;81.90;;;;;;5013510;28;20807;-73
2023/05/26 12:09:00;;;;;;;8.47;7.40;;;29.70;76.20;;;;;;5010699;28;20430;-72
2023/05/26 12:11:29;;;;;;;9.57;6.87;;;29.70;75.50;;;;;;5012749;28;20399;-72
2023/05/26 12:14:03;;;;;;;6.50;5.77;;;28.50;76.70;;;;;;4995328;28;20414;-73
2023/05/26 12:16:37;;;;;;;8.80;7.00;;;27.80;80.00;;;;;;5016106;28;20474;-73
2023/05/26 12:19:04;;;;;;;7.03;5.90;;;28.20;79.40;;;;;;5017494;28;20409;-75
2023/05/26 12:21:31;;;;;;;8.47;6.57;;;28.40;76.90;;;;;;5006915;28;20538;-74
2023/05/26 12:23:58;;;;;;;8.23;6.63;;;28.70;77.90;;;;;;5004768;28;20426;-74
2023/05/26 12:26:29;;;;;;;8.63;6.20;;;29.10;75.10;;;;;;5006102;28;20557;-73
2023/05/26 12:29:26;;;;;;;6.90;5.93;;;29.10;75.10;;;;;;5018957;28;20419;-73
2023/05/26 12:31:52;;;;;;;9.50;5.93;;;28.50;75.90;;;;;;4987783;28;20403;-72
2023/05/26 12:34:23;;;;;;;6.93;5.87;;;27.90;77.40;;;;;;5022700;28;20454;-72
2023/05/26 12:36:49;;;;;;;9.07;6.03;;;28.60;77.20;;;;;;5035887;28;20410;-72
2023/05/26 12:39:16;;;;;;;7.23;6.53;;;29.60;72.80;;;;;;5036210;28;20880;-74
2023/05/26 12:41:45;;;;;;;8.10;6.03;;;30.20;72.20;;;;;;5039316;28;20818;-73